sensor_id;sensor_type;location;lat;lon;timestamp;P1;durP1;ratioP1;P2;durP2;ratioP2
10450;SDS011;5273;51.290;6.918;2024-03-02T00:01:32;1.60;;;1.50;;
10450;SDS011;5273;51.290;6.918;2024-03-02T00:03:59;1.40;;;1.30;;
10450;SDS011;5273;51.290;6.918;2024-03-02T00:06:28;1.63;;;1.40;;
10450;SDS011;5273;51.290;6.918;2024-03-02T00:08:56;2.07;;;1.40;;
10450;SDS011;5273;51.290;6.918;2024-03-02T00:11:24;1.67;;;1.57;;
10450;SDS011;5273;51.290;6.918;2024-03-02T00:13:52;1.47;;;1.37;;
10450;SDS011;5273;51.290;6.918;2024-03-02T00:16:20;1.70;;;1.50;;
10450;SDS011;5273;51.290;6.918;2024-03-02T00:18:47;1.17;;;1.07;;
10450;SDS011;5273;51.290;6.918;2024-03-02T00:21:15;2.00;;;1.47;;
10450;SDS011;5273;51.290;6.918;2024-03-02T00:23:47;1.33;;;1.20;;
10450;SDS011;5273;51.290;6.918;2024-03-02T00:26:17;4.27;;;1.50;;
10450;SDS011;5273;51.290;6.918;2024-03-02T00:28:44;2.33;;;1.20;;
10450;SDS011;5273;51.290;6.918;2024-03-02T00:31:11;1.90;;;1.60;;
10450;SDS011;5273;51.290;6.918;2024-03-02T00:33:40;1.43;;;1.20;;
10450;SDS011;5273;51.290;6.918;2024-03-02T00:36:09;2.00;;;1.33;;
10450;SDS011;5273;51.290;6.918;2024-03-02T00:38:42;2.53;;;1.40;;
10450;SDS011;5273;51.290;6.918;2024-03-02T00:41:15;1.53;;;1.40;;
10450;SDS011;5273;51.290;6.918;2024-03-02T00:43:47;1.70;;;1.17;;
10450;SDS011;5273;51.290;6.918;2024-03-02T00:46:19;2.27;;;1.40;;
10450;SDS011;5273;51.290;6.918;2024-03-02T00:48:53;1.43;;;1.33;;
10450;SDS011;5273;51.290;6.918;2024-03-02T00:51:21;1.80;;;1.70;;
10450;SDS011;5273;51.290;6.918;2024-03-02T00:53:48;2.00;;;1.50;;
10450;SDS011;5273;51.290;6.918;2024-03-02T00:56:17;3.70;;;1.50;;
10450;SDS011;5273;51.290;6.918;2024-03-02T00:58:44;3.33;;;1.30;;
10450;SDS011;5273;51.290;6.918;2024-03-02T01:01:11;1.40;;;1.30;;
10450;SDS011;5273;51.290;6.918;2024-03-02T01:03:38;1.37;;;1.27;;
10450;SDS011;5273;51.290;6.918;2024-03-02T01:06:06;1.50;;;1.40;;
10450;SDS011;5273;51.290;6.918;2024-03-02T01:08:34;1.63;;;1.47;;
10450;SDS011;5273;51.290;6.918;2024-03-02T01:11:01;1.93;;;1.27;;
10450;SDS011;5273;51.290;6.918;2024-03-02T01:13:30;2.37;;;1.50;;
10450;SDS011;5273;51.290;6.918;2024-03-02T01:15:57;2.07;;;1.60;;
10450;SDS011;5273;51.290;6.918;2024-03-02T01:18:24;1.57;;;1.43;;
10450;SDS011;5273;51.290;6.918;2024-03-02T01:20:51;1.20;;;1.10;;
10450;SDS011;5273;51.290;6.918;2024-03-02T01:23:21;1.57;;;1.30;;
10450;SDS011;5273;51.290;6.918;2024-03-02T01:25:48;1.80;;;1.40;;
10450;SDS011;5273;51.290;6.918;2024-03-02T01:28:15;1.10;;;1.00;;
10450;SDS011;5273;51.290;6.918;2024-03-02T01:30:44;1.40;;;1.10;;
10450;SDS011;5273;51.290;6.918;2024-03-02T01:33:11;2.47;;;1.33;;
10450;SDS011;5273;51.290;6.918;2024-03-02T01:35:38;1.33;;;1.20;;
10450;SDS011;5273;51.290;6.918;2024-03-02T01:38:05;1.50;;;1.37;;
10450;SDS011;5273;51.290;6.918;2024-03-02T01:40:32;1.30;;;1.20;;
10450;SDS011;5273;51.290;6.918;2024-03-02T01:43:00;1.50;;;1.40;;
10450;SDS011;5273;51.290;6.918;2024-03-02T01:45:29;1.10;;;1.00;;
10450;SDS011;5273;51.290;6.918;2024-03-02T01:47:58;1.40;;;1.30;;
10450;SDS011;5273;51.290;6.918;2024-03-02T01:50:27;1.43;;;1.23;;
10450;SDS011;5273;51.290;6.918;2024-03-02T01:52:55;1.47;;;1.20;;
10450;SDS011;5273;51.290;6.918;2024-03-02T01:55:22;1.27;;;1.17;;
10450;SDS011;5273;51.290;6.918;2024-03-02T01:57:50;1.87;;;1.10;;
10450;SDS011;5273;51.290;6.918;2024-03-02T02:00:19;1.60;;;1.50;;
10450;SDS011;5273;51.290;6.918;2024-03-02T02:02:47;1.53;;;1.07;;
10450;SDS011;5273;51.290;6.918;2024-03-02T02:05:16;1.47;;;1.33;;
10450;SDS011;5273;51.290;6.918;2024-03-02T02:07:43;1.80;;;1.00;;
10450;SDS011;5273;51.290;6.918;2024-03-02T02:10:10;2.60;;;1.23;;
10450;SDS011;5273;51.290;6.918;2024-03-02T02:12:38;3.13;;;1.40;;
10450;SDS011;5273;51.290;6.918;2024-03-02T02:17:50;1.30;;;1.20;;
10450;SDS011;5273;51.290;6.918;2024-03-02T02:20:19;0.80;;;0.80;;
10450;SDS011;5273;51.290;6.918;2024-03-02T02:22:54;1.93;;;1.20;;
10450;SDS011;5273;51.290;6.918;2024-03-02T02:25:22;1.20;;;1.10;;
10450;SDS011;5273;51.290;6.918;2024-03-02T02:27:49;1.43;;;1.00;;
10450;SDS011;5273;51.290;6.918;2024-03-02T02:30:18;2.23;;;1.37;;
10450;SDS011;5273;51.290;6.918;2024-03-02T02:32:45;3.03;;;1.43;;
10450;SDS011;5273;51.290;6.918;2024-03-02T02:35:13;2.77;;;1.37;;
10450;SDS011;5273;51.290;6.918;2024-03-02T02:37:40;1.20;;;1.10;;
10450;SDS011;5273;51.290;6.918;2024-03-02T02:40:09;3.07;;;0.90;;
10450;SDS011;5273;51.290;6.918;2024-03-02T02:42:37;2.83;;;1.03;;
10450;SDS011;5273;51.290;6.918;2024-03-02T02:45:05;2.23;;;1.13;;
10450;SDS011;5273;51.290;6.918;2024-03-02T02:47:32;1.97;;;1.50;;
10450;SDS011;5273;51.290;6.918;2024-03-02T02:50:00;1.63;;;1.10;;
10450;SDS011;5273;51.290;6.918;2024-03-02T02:52:30;1.03;;;0.93;;
10450;SDS011;5273;51.290;6.918;2024-03-02T02:54:59;1.33;;;1.00;;
10450;SDS011;5273;51.290;6.918;2024-03-02T02:57:29;1.43;;;0.80;;
10450;SDS011;5273;51.290;6.918;2024-03-02T03:00:00;0.97;;;0.90;;
10450;SDS011;5273;51.290;6.918;2024-03-02T03:02:29;1.20;;;1.00;;
10450;SDS011;5273;51.290;6.918;2024-03-02T03:04:56;1.23;;;1.13;;
10450;SDS011;5273;51.290;6.918;2024-03-02T03:07:23;1.00;;;0.90;;
10450;SDS011;5273;51.290;6.918;2024-03-02T03:09:50;2.10;;;0.97;;
10450;SDS011;5273;51.290;6.918;2024-03-02T03:12:18;1.70;;;1.00;;
10450;SDS011;5273;51.290;6.918;2024-03-02T03:14:46;1.47;;;1.27;;
10450;SDS011;5273;51.290;6.918;2024-03-02T03:17:13;1.40;;;1.23;;
10450;SDS011;5273;51.290;6.918;2024-03-02T03:19:40;2.63;;;1.20;;
10450;SDS011;5273;51.290;6.918;2024-03-02T03:22:08;1.37;;;1.13;;
10450;SDS011;5273;51.290;6.918;2024-03-02T03:24:35;1.00;;;1.00;;
10450;SDS011;5273;51.290;6.918;2024-03-02T03:27:02;2.70;;;1.20;;
10450;SDS011;5273;51.290;6.918;2024-03-02T03:29:29;1.20;;;1.10;;
10450;SDS011;5273;51.290;6.918;2024-03-02T03:31:58;2.60;;;1.00;;
10450;SDS011;5273;51.290;6.918;2024-03-02T03:34:25;2.27;;;0.90;;
10450;SDS011;5273;51.290;6.918;2024-03-02T03:36:52;1.43;;;1.23;;
10450;SDS011;5273;51.290;6.918;2024-03-02T03:39:19;1.20;;;1.10;;
10450;SDS011;5273;51.290;6.918;2024-03-02T03:41:46;1.30;;;1.13;;
10450;SDS011;5273;51.290;6.918;2024-03-02T03:44:13;2.87;;;1.13;;
10450;SDS011;5273;51.290;6.918;2024-03-02T03:46:40;1.20;;;1.10;;
10450;SDS011;5273;51.290;6.918;2024-03-02T03:49:09;1.23;;;1.13;;
10450;SDS011;5273;51.290;6.918;2024-03-02T03:51:36;1.17;;;1.00;;
10450;SDS011;5273;51.290;6.918;2024-03-02T03:54:03;1.63;;;1.37;;
10450;SDS011;5273;51.290;6.918;2024-03-02T03:56:30;1.17;;;1.07;;
10450;SDS011;5273;51.290;6.918;2024-03-02T03:58:57;2.83;;;1.20;;
10450;SDS011;5273;51.290;6.918;2024-03-02T04:01:24;2.17;;;1.47;;
10450;SDS011;5273;51.290;6.918;2024-03-02T04:03:52;1.57;;;1.23;;
10450;SDS011;5273;51.290;6.918;2024-03-02T04:06:20;3.47;;;1.87;;
10450;SDS011;5273;51.290;6.918;2024-03-02T04:08:47;5.97;;;1.30;;
10450;SDS011;5273;51.290;6.918;2024-03-02T04:11:14;1.10;;;1.00;;
10450;SDS011;5273;51.290;6.918;2024-03-02T04:13:41;1.67;;;1.20;;
10450;SDS011;5273;51.290;6.918;2024-03-02T04:16:08;1.40;;;1.30;;
10450;SDS011;5273;51.290;6.918;2024-03-02T04:18:36;1.97;;;1.10;;
10450;SDS011;5273;51.290;6.918;2024-03-02T04:21:03;1.53;;;1.10;;
10450;SDS011;5273;51.290;6.918;2024-03-02T04:23:31;2.50;;;1.10;;
10450;SDS011;5273;51.290;6.918;2024-03-02T04:25:58;1.73;;;1.20;;
10450;SDS011;5273;51.290;6.918;2024-03-02T04:28:25;1.30;;;1.20;;
10450;SDS011;5273;51.290;6.918;2024-03-02T04:30:52;1.03;;;0.77;;
10450;SDS011;5273;51.290;6.918;2024-03-02T04:33:19;1.37;;;1.00;;
10450;SDS011;5273;51.290;6.918;2024-03-02T04:35:47;1.27;;;1.10;;
10450;SDS011;5273;51.290;6.918;2024-03-02T04:38:14;3.63;;;1.37;;
10450;SDS011;5273;51.290;6.918;2024-03-02T04:40:42;1.00;;;1.00;;
10450;SDS011;5273;51.290;6.918;2024-03-02T04:43:09;2.13;;;1.20;;
10450;SDS011;5273;51.290;6.918;2024-03-02T04:45:40;1.63;;;1.20;;
10450;SDS011;5273;51.290;6.918;2024-03-02T04:48:07;1.47;;;1.30;;
10450;SDS011;5273;51.290;6.918;2024-03-02T04:50:34;1.03;;;0.93;;
10450;SDS011;5273;51.290;6.918;2024-03-02T04:53:01;1.73;;;1.27;;
10450;SDS011;5273;51.290;6.918;2024-03-02T04:55:29;1.37;;;1.00;;
10450;SDS011;5273;51.290;6.918;2024-03-02T04:58:22;1.93;;;1.10;;
10450;SDS011;5273;51.290;6.918;2024-03-02T05:00:49;1.07;;;1.00;;
10450;SDS011;5273;51.290;6.918;2024-03-02T05:03:16;1.30;;;1.20;;
10450;SDS011;5273;51.290;6.918;2024-03-02T05:05:43;1.33;;;1.23;;
10450;SDS011;5273;51.290;6.918;2024-03-02T05:08:10;1.10;;;1.00;;
10450;SDS011;5273;51.290;6.918;2024-03-02T05:10:38;2.30;;;1.50;;
10450;SDS011;5273;51.290;6.918;2024-03-02T05:13:05;1.67;;;1.37;;
10450;SDS011;5273;51.290;6.918;2024-03-02T05:15:33;2.00;;;0.93;;
10450;SDS011;5273;51.290;6.918;2024-03-02T05:18:00;1.30;;;1.20;;
10450;SDS011;5273;51.290;6.918;2024-03-02T05:20:30;2.17;;;1.40;;
10450;SDS011;5273;51.290;6.918;2024-03-02T05:22:57;2.03;;;1.30;;
10450;SDS011;5273;51.290;6.918;2024-03-02T05:25:24;1.87;;;1.40;;
10450;SDS011;5273;51.290;6.918;2024-03-02T05:27:51;2.17;;;1.43;;
10450;SDS011;5273;51.290;6.918;2024-03-02T05:30:19;3.27;;;1.40;;
10450;SDS011;5273;51.290;6.918;2024-03-02T05:32:47;2.53;;;1.30;;
10450;SDS011;5273;51.290;6.918;2024-03-02T05:35:14;2.77;;;1.63;;
10450;SDS011;5273;51.290;6.918;2024-03-02T05:37:41;2.30;;;1.63;;
10450;SDS011;5273;51.290;6.918;2024-03-02T05:40:08;1.50;;;1.37;;
10450;SDS011;5273;51.290;6.918;2024-03-02T05:42:36;2.13;;;1.17;;
10450;SDS011;5273;51.290;6.918;2024-03-02T05:45:04;3.07;;;1.70;;
10450;SDS011;5273;51.290;6.918;2024-03-02T05:47:31;2.40;;;1.50;;
10450;SDS011;5273;51.290;6.918;2024-03-02T05:50:00;1.90;;;1.40;;
10450;SDS011;5273;51.290;6.918;2024-03-02T05:52:28;1.57;;;1.40;;
10450;SDS011;5273;51.290;6.918;2024-03-02T05:54:56;3.23;;;1.67;;
10450;SDS011;5273;51.290;6.918;2024-03-02T05:57:23;3.07;;;1.80;;
10450;SDS011;5273;51.290;6.918;2024-03-02T06:00:10;2.37;;;1.70;;
10450;SDS011;5273;51.290;6.918;2024-03-02T06:02:38;1.50;;;1.40;;
10450;SDS011;5273;51.290;6.918;2024-03-02T06:05:07;1.87;;;1.57;;
10450;SDS011;5273;51.290;6.918;2024-03-02T06:07:33;4.17;;;2.00;;
10450;SDS011;5273;51.290;6.918;2024-03-02T06:10:01;1.40;;;1.30;;
10450;SDS011;5273;51.290;6.918;2024-03-02T06:12:28;2.20;;;1.50;;
10450;SDS011;5273;51.290;6.918;2024-03-02T06:14:55;1.60;;;1.50;;
10450;SDS011;5273;51.290;6.918;2024-03-02T06:17:22;4.00;;;1.57;;
10450;SDS011;5273;51.290;6.918;2024-03-02T06:19:50;3.30;;;1.77;;
10450;SDS011;5273;51.290;6.918;2024-03-02T06:22:18;1.50;;;1.40;;
10450;SDS011;5273;51.290;6.918;2024-03-02T06:24:46;3.03;;;1.43;;
10450;SDS011;5273;51.290;6.918;2024-03-02T06:27:13;2.53;;;1.63;;
10450;SDS011;5273;51.290;6.918;2024-03-02T06:29:40;2.53;;;1.43;;
10450;SDS011;5273;51.290;6.918;2024-03-02T06:32:07;5.63;;;1.73;;
10450;SDS011;5273;51.290;6.918;2024-03-02T06:34:35;2.10;;;1.60;;
10450;SDS011;5273;51.290;6.918;2024-03-02T06:37:02;2.20;;;1.70;;
10450;SDS011;5273;51.290;6.918;2024-03-02T06:39:30;2.07;;;1.60;;
10450;SDS011;5273;51.290;6.918;2024-03-02T06:41:59;1.50;;;1.40;;
10450;SDS011;5273;51.290;6.918;2024-03-02T06:44:26;2.53;;;1.43;;
10450;SDS011;5273;51.290;6.918;2024-03-02T06:46:53;3.20;;;1.80;;
10450;SDS011;5273;51.290;6.918;2024-03-02T06:49:20;2.30;;;1.77;;
10450;SDS011;5273;51.290;6.918;2024-03-02T06:51:47;1.87;;;1.67;;
10450;SDS011;5273;51.290;6.918;2024-03-02T06:54:15;1.90;;;1.63;;
10450;SDS011;5273;51.290;6.918;2024-03-02T06:56:43;2.23;;;1.50;;
10450;SDS011;5273;51.290;6.918;2024-03-02T06:59:10;2.37;;;1.63;;
10450;SDS011;5273;51.290;6.918;2024-03-02T07:01:37;2.53;;;1.67;;
10450;SDS011;5273;51.290;6.918;2024-03-02T07:04:04;1.73;;;1.63;;
10450;SDS011;5273;51.290;6.918;2024-03-02T07:06:31;1.57;;;1.47;;
10450;SDS011;5273;51.290;6.918;2024-03-02T07:08:58;1.90;;;1.63;;
10450;SDS011;5273;51.290;6.918;2024-03-02T07:11:25;1.80;;;1.70;;
10450;SDS011;5273;51.290;6.918;2024-03-02T07:13:53;3.72;;;1.60;;
10450;SDS011;5273;51.290;6.918;2024-03-02T07:16:20;3.17;;;1.75;;
10450;SDS011;5273;51.290;6.918;2024-03-02T07:18:53;1.70;;;1.60;;
10450;SDS011;5273;51.290;6.918;2024-03-02T07:21:21;2.35;;;1.40;;
10450;SDS011;5273;51.290;6.918;2024-03-02T07:23:48;1.90;;;1.60;;
10450;SDS011;5273;51.290;6.918;2024-03-02T07:26:16;3.88;;;2.30;;
10450;SDS011;5273;51.290;6.918;2024-03-02T07:28:43;2.45;;;1.80;;
10450;SDS011;5273;51.290;6.918;2024-03-02T07:31:12;1.85;;;1.75;;
10450;SDS011;5273;51.290;6.918;2024-03-02T07:33:39;2.05;;;1.85;;
10450;SDS011;5273;51.290;6.918;2024-03-02T07:36:06;1.92;;;1.63;;
10450;SDS011;5273;51.290;6.918;2024-03-02T07:38:34;2.85;;;1.85;;
10450;SDS011;5273;51.290;6.918;2024-03-02T07:41:01;2.13;;;1.58;;
10450;SDS011;5273;51.290;6.918;2024-03-02T07:43:29;2.25;;;1.55;;
10450;SDS011;5273;51.290;6.918;2024-03-02T07:45:56;2.28;;;1.77;;
10450;SDS011;5273;51.290;6.918;2024-03-02T07:48:25;2.58;;;1.90;;
10450;SDS011;5273;51.290;6.918;2024-03-02T07:50:52;1.98;;;1.70;;
10450;SDS011;5273;51.290;6.918;2024-03-02T07:53:18;2.65;;;1.70;;
10450;SDS011;5273;51.290;6.918;2024-03-02T07:55:45;2.00;;;1.80;;
10450;SDS011;5273;51.290;6.918;2024-03-02T07:58:12;1.98;;;1.80;;
10450;SDS011;5273;51.290;6.918;2024-03-02T08:00:39;2.72;;;1.88;;
10450;SDS011;5273;51.290;6.918;2024-03-02T08:03:06;1.80;;;1.70;;
10450;SDS011;5273;51.290;6.918;2024-03-02T08:05:37;2.10;;;1.70;;
10450;SDS011;5273;51.290;6.918;2024-03-02T08:08:04;2.15;;;1.40;;
10450;SDS011;5273;51.290;6.918;2024-03-02T08:10:31;1.95;;;1.50;;
10450;SDS011;5273;51.290;6.918;2024-03-02T08:12:59;1.52;;;1.42;;
10450;SDS011;5273;51.290;6.918;2024-03-02T08:15:26;2.13;;;1.63;;
10450;SDS011;5273;51.290;6.918;2024-03-02T08:17:53;1.65;;;1.55;;
10450;SDS011;5273;51.290;6.918;2024-03-02T08:20:21;2.28;;;1.42;;
10450;SDS011;5273;51.290;6.918;2024-03-02T08:22:49;2.03;;;1.60;;
10450;SDS011;5273;51.290;6.918;2024-03-02T08:25:16;2.17;;;1.67;;
10450;SDS011;5273;51.290;6.918;2024-03-02T08:27:43;2.42;;;1.50;;
10450;SDS011;5273;51.290;6.918;2024-03-02T08:30:10;2.20;;;1.58;;
10450;SDS011;5273;51.290;6.918;2024-03-02T08:32:38;2.40;;;1.60;;
10450;SDS011;5273;51.290;6.918;2024-03-02T08:35:06;1.70;;;1.60;;
10450;SDS011;5273;51.290;6.918;2024-03-02T08:37:33;2.05;;;1.60;;
10450;SDS011;5273;51.290;6.918;2024-03-02T08:40:01;1.63;;;1.52;;
10450;SDS011;5273;51.290;6.918;2024-03-02T08:42:32;2.30;;;1.80;;
10450;SDS011;5273;51.290;6.918;2024-03-02T08:44:59;2.75;;;1.80;;
10450;SDS011;5273;51.290;6.918;2024-03-02T08:47:27;2.20;;;1.80;;
10450;SDS011;5273;51.290;6.918;2024-03-02T08:49:54;1.58;;;1.48;;
10450;SDS011;5273;51.290;6.918;2024-03-02T08:52:21;4.30;;;2.65;;
10450;SDS011;5273;51.290;6.918;2024-03-02T08:54:48;1.63;;;1.52;;
10450;SDS011;5273;51.290;6.918;2024-03-02T08:57:16;3.17;;;1.70;;
10450;SDS011;5273;51.290;6.918;2024-03-02T08:59:43;2.45;;;1.70;;
10450;SDS011;5273;51.290;6.918;2024-03-02T09:02:10;2.00;;;1.80;;
10450;SDS011;5273;51.290;6.918;2024-03-02T09:04:37;1.75;;;1.50;;
10450;SDS011;5273;51.290;6.918;2024-03-02T09:07:04;1.98;;;1.75;;
10450;SDS011;5273;51.290;6.918;2024-03-02T09:09:32;1.45;;;1.25;;
10450;SDS011;5273;51.290;6.918;2024-03-02T09:11:59;1.60;;;1.50;;
10450;SDS011;5273;51.290;6.918;2024-03-02T09:14:27;2.50;;;1.80;;
10450;SDS011;5273;51.290;6.918;2024-03-02T09:16:54;1.70;;;1.60;;
10450;SDS011;5273;51.290;6.918;2024-03-02T09:19:21;2.05;;;1.63;;
10450;SDS011;5273;51.290;6.918;2024-03-02T09:21:48;2.13;;;1.25;;
10450;SDS011;5273;51.290;6.918;2024-03-02T09:24:16;2.75;;;1.50;;
10450;SDS011;5273;51.290;6.918;2024-03-02T09:26:42;2.47;;;1.80;;
10450;SDS011;5273;51.290;6.918;2024-03-02T09:29:09;3.28;;;1.67;;
10450;SDS011;5273;51.290;6.918;2024-03-02T09:31:40;3.53;;;1.70;;
10450;SDS011;5273;51.290;6.918;2024-03-02T09:34:07;2.70;;;1.52;;
10450;SDS011;5273;51.290;6.918;2024-03-02T09:36:34;3.22;;;1.42;;
10450;SDS011;5273;51.290;6.918;2024-03-02T09:39:01;2.17;;;1.40;;
10450;SDS011;5273;51.290;6.918;2024-03-02T09:41:29;1.50;;;1.40;;
10450;SDS011;5273;51.290;6.918;2024-03-02T09:43:56;1.08;;;1.00;;
10450;SDS011;5273;51.290;6.918;2024-03-02T09:46:23;1.90;;;1.50;;
10450;SDS011;5273;51.290;6.918;2024-03-02T09:48:52;1.35;;;1.25;;
10450;SDS011;5273;51.290;6.918;2024-03-02T09:51:19;2.75;;;1.50;;
10450;SDS011;5273;51.290;6.918;2024-03-02T09:53:46;2.03;;;1.40;;
10450;SDS011;5273;51.290;6.918;2024-03-02T09:56:13;1.50;;;1.10;;
10450;SDS011;5273;51.290;6.918;2024-03-02T09:58:43;1.83;;;1.48;;
10450;SDS011;5273;51.290;6.918;2024-03-02T10:01:10;1.20;;;1.10;;
10450;SDS011;5273;51.290;6.918;2024-03-02T10:03:37;1.50;;;1.40;;
10450;SDS011;5273;51.290;6.918;2024-03-02T10:06:19;2.22;;;1.45;;
10450;SDS011;5273;51.290;6.918;2024-03-02T10:08:47;1.70;;;1.48;;
10450;SDS011;5273;51.290;6.918;2024-03-02T10:14:04;1.67;;;1.20;;
10450;SDS011;5273;51.290;6.918;2024-03-02T10:16:33;3.22;;;1.15;;
10450;SDS011;5273;51.290;6.918;2024-03-02T10:19:12;2.17;;;1.40;;
10450;SDS011;5273;51.290;6.918;2024-03-02T10:21:44;2.65;;;1.20;;
10450;SDS011;5273;51.290;6.918;2024-03-02T10:24:11;2.83;;;1.40;;
10450;SDS011;5273;51.290;6.918;2024-03-02T10:26:38;1.65;;;1.20;;
10450;SDS011;5273;51.290;6.918;2024-03-02T10:29:06;2.15;;;1.25;;
10450;SDS011;5273;51.290;6.918;2024-03-02T10:31:35;1.73;;;1.20;;
10450;SDS011;5273;51.290;6.918;2024-03-02T10:34:03;2.20;;;1.20;;
10450;SDS011;5273;51.290;6.918;2024-03-02T10:36:30;1.65;;;1.33;;
10450;SDS011;5273;51.290;6.918;2024-03-02T10:38:59;2.25;;;1.30;;
10450;SDS011;5273;51.290;6.918;2024-03-02T10:41:29;1.85;;;1.40;;
10450;SDS011;5273;51.290;6.918;2024-03-02T10:43:58;2.25;;;1.40;;
10450;SDS011;5273;51.290;6.918;2024-03-02T10:46:26;1.30;;;1.20;;
10450;SDS011;5273;51.290;6.918;2024-03-02T10:48:55;1.40;;;1.30;;
10450;SDS011;5273;51.290;6.918;2024-03-02T10:51:23;1.98;;;1.33;;
10450;SDS011;5273;51.290;6.918;2024-03-02T10:53:51;1.65;;;1.13;;
10450;SDS011;5273;51.290;6.918;2024-03-02T10:56:21;2.35;;;1.70;;
10450;SDS011;5273;51.290;6.918;2024-03-02T10:58:55;1.27;;;1.15;;
10450;SDS011;5273;51.290;6.918;2024-03-02T11:01:28;2.13;;;1.20;;
10450;SDS011;5273;51.290;6.918;2024-03-02T11:03:57;1.45;;;1.17;;
10450;SDS011;5273;51.290;6.918;2024-03-02T11:06:25;2.25;;;1.33;;
10450;SDS011;5273;51.290;6.918;2024-03-02T11:08:54;2.22;;;1.17;;
10450;SDS011;5273;51.290;6.918;2024-03-02T11:11:27;1.02;;;0.90;;
10450;SDS011;5273;51.290;6.918;2024-03-02T11:14:00;1.20;;;0.80;;
10450;SDS011;5273;51.290;6.918;2024-03-02T11:16:33;2.22;;;0.95;;
10450;SDS011;5273;51.290;6.918;2024-03-02T11:19:02;0.73;;;0.73;;
10450;SDS011;5273;51.290;6.918;2024-03-02T11:21:31;2.40;;;1.25;;
10450;SDS011;5273;51.290;6.918;2024-03-02T11:23:58;0.93;;;0.85;;
10450;SDS011;5273;51.290;6.918;2024-03-02T11:26:28;2.95;;;1.20;;
10450;SDS011;5273;51.290;6.918;2024-03-02T11:29:04;1.95;;;1.08;;
10450;SDS011;5273;51.290;6.918;2024-03-02T11:34:28;1.20;;;1.10;;
10450;SDS011;5273;51.290;6.918;2024-03-02T11:36:56;1.35;;;1.05;;
10450;SDS011;5273;51.290;6.918;2024-03-02T11:39:24;1.88;;;1.00;;
10450;SDS011;5273;51.290;6.918;2024-03-02T11:41:52;2.63;;;1.10;;
10450;SDS011;5273;51.290;6.918;2024-03-02T11:44:19;1.33;;;1.13;;
10450;SDS011;5273;51.290;6.918;2024-03-02T11:46:46;2.58;;;1.10;;
10450;SDS011;5273;51.290;6.918;2024-03-02T11:49:20;2.42;;;1.25;;
10450;SDS011;5273;51.290;6.918;2024-03-02T11:52:03;3.38;;;1.13;;
10450;SDS011;5273;51.290;6.918;2024-03-02T11:54:32;2.08;;;1.10;;
10450;SDS011;5273;51.290;6.918;2024-03-02T11:57:02;1.27;;;1.00;;
10450;SDS011;5273;51.290;6.918;2024-03-02T11:59:29;1.55;;;1.10;;
10450;SDS011;5273;51.290;6.918;2024-03-02T12:01:56;1.30;;;1.00;;
10450;SDS011;5273;51.290;6.918;2024-03-02T12:04:24;1.27;;;0.90;;
10450;SDS011;5273;51.290;6.918;2024-03-02T12:06:54;1.23;;;1.00;;
10450;SDS011;5273;51.290;6.918;2024-03-02T12:09:21;2.88;;;1.27;;
10450;SDS011;5273;51.290;6.918;2024-03-02T12:11:48;0.85;;;0.80;;
10450;SDS011;5273;51.290;6.918;2024-03-02T12:14:30;1.08;;;0.98;;
10450;SDS011;5273;51.290;6.918;2024-03-02T12:16:57;2.75;;;1.05;;
10450;SDS011;5273;51.290;6.918;2024-03-02T12:19:25;1.25;;;0.82;;
10450;SDS011;5273;51.290;6.918;2024-03-02T12:21:52;1.75;;;0.90;;
10450;SDS011;5273;51.290;6.918;2024-03-02T12:24:20;1.02;;;1.00;;
10450;SDS011;5273;51.290;6.918;2024-03-02T12:26:47;1.60;;;0.80;;
10450;SDS011;5273;51.290;6.918;2024-03-02T12:29:16;1.52;;;0.93;;
10450;SDS011;5273;51.290;6.918;2024-03-02T12:31:45;2.38;;;1.05;;
10450;SDS011;5273;51.290;6.918;2024-03-02T12:34:12;1.15;;;1.00;;
10450;SDS011;5273;51.290;6.918;2024-03-02T12:36:40;1.33;;;0.80;;
10450;SDS011;5273;51.290;6.918;2024-03-02T12:39:07;1.92;;;0.82;;
10450;SDS011;5273;51.290;6.918;2024-03-02T12:41:35;1.30;;;1.15;;
10450;SDS011;5273;51.290;6.918;2024-03-02T12:44:03;1.45;;;0.88;;
10450;SDS011;5273;51.290;6.918;2024-03-02T12:46:32;1.80;;;0.82;;
10450;SDS011;5273;51.290;6.918;2024-03-02T12:49:04;1.77;;;1.10;;
10450;SDS011;5273;51.290;6.918;2024-03-02T12:51:33;2.22;;;0.90;;
10450;SDS011;5273;51.290;6.918;2024-03-02T12:54:01;0.95;;;0.82;;
10450;SDS011;5273;51.290;6.918;2024-03-02T12:56:28;1.10;;;0.90;;
10450;SDS011;5273;51.290;6.918;2024-03-02T12:58:55;0.85;;;0.80;;
10450;SDS011;5273;51.290;6.918;2024-03-02T13:01:24;1.55;;;1.05;;
10450;SDS011;5273;51.290;6.918;2024-03-02T13:03:52;1.90;;;1.10;;
10450;SDS011;5273;51.290;6.918;2024-03-02T13:06:21;1.13;;;0.80;;
10450;SDS011;5273;51.290;6.918;2024-03-02T13:08:48;1.20;;;1.10;;
10450;SDS011;5273;51.290;6.918;2024-03-02T13:11:15;3.33;;;0.80;;
10450;SDS011;5273;51.290;6.918;2024-03-02T13:13:43;1.30;;;0.82;;
10450;SDS011;5273;51.290;6.918;2024-03-02T13:16:10;0.80;;;0.80;;
10450;SDS011;5273;51.290;6.918;2024-03-02T13:18:38;1.17;;;0.90;;
10450;SDS011;5273;51.290;6.918;2024-03-02T13:21:06;0.73;;;0.65;;
10450;SDS011;5273;51.290;6.918;2024-03-02T13:23:33;1.83;;;1.42;;
10450;SDS011;5273;51.290;6.918;2024-03-02T13:26:00;3.65;;;1.40;;
10450;SDS011;5273;51.290;6.918;2024-03-02T13:28:27;1.58;;;1.15;;
10450;SDS011;5273;51.290;6.918;2024-03-02T13:30:54;0.98;;;0.90;;
10450;SDS011;5273;51.290;6.918;2024-03-02T13:33:21;1.50;;;1.05;;
10450;SDS011;5273;51.290;6.918;2024-03-02T13:35:48;2.22;;;1.70;;
10450;SDS011;5273;51.290;6.918;2024-03-02T13:38:17;1.27;;;1.15;;
10450;SDS011;5273;51.290;6.918;2024-03-02T13:40:45;1.40;;;0.70;;
10450;SDS011;5273;51.290;6.918;2024-03-02T13:43:12;0.65;;;0.63;;
10450;SDS011;5273;51.290;6.918;2024-03-02T13:45:39;0.90;;;0.90;;
10450;SDS011;5273;51.290;6.918;2024-03-02T13:48:07;0.77;;;0.77;;
10450;SDS011;5273;51.290;6.918;2024-03-02T13:50:34;3.42;;;0.93;;
10450;SDS011;5273;51.290;6.918;2024-03-02T13:53:01;2.10;;;1.02;;
10450;SDS011;5273;51.290;6.918;2024-03-02T13:55:31;1.63;;;1.10;;
10450;SDS011;5273;51.290;6.918;2024-03-02T13:57:58;1.77;;;0.82;;
10450;SDS011;5273;51.290;6.918;2024-03-02T14:00:25;0.75;;;0.73;;
10450;SDS011;5273;51.290;6.918;2024-03-02T14:02:52;0.90;;;0.65;;
10450;SDS011;5273;51.290;6.918;2024-03-02T14:05:18;1.17;;;0.82;;
10450;SDS011;5273;51.290;6.918;2024-03-02T14:07:46;0.70;;;0.70;;
10450;SDS011;5273;51.290;6.918;2024-03-02T14:10:12;0.88;;;0.88;;
10450;SDS011;5273;51.290;6.918;2024-03-02T14:12:42;1.27;;;0.80;;
10450;SDS011;5273;51.290;6.918;2024-03-02T14:15:09;0.75;;;0.75;;
10450;SDS011;5273;51.290;6.918;2024-03-02T14:17:35;1.20;;;0.90;;
10450;SDS011;5273;51.290;6.918;2024-03-02T14:20:03;0.60;;;0.60;;
10450;SDS011;5273;51.290;6.918;2024-03-02T14:22:30;0.73;;;0.70;;
10450;SDS011;5273;51.290;6.918;2024-03-02T14:24:59;0.80;;;0.60;;
10450;SDS011;5273;51.290;6.918;2024-03-02T14:27:25;0.82;;;0.82;;
10450;SDS011;5273;51.290;6.918;2024-03-02T14:29:53;0.68;;;0.68;;
10450;SDS011;5273;51.290;6.918;2024-03-02T14:32:20;0.73;;;0.70;;
10450;SDS011;5273;51.290;6.918;2024-03-02T14:34:47;0.57;;;0.43;;
10450;SDS011;5273;51.290;6.918;2024-03-02T14:37:14;1.33;;;0.77;;
10450;SDS011;5273;51.290;6.918;2024-03-02T14:39:41;0.80;;;0.80;;
10450;SDS011;5273;51.290;6.918;2024-03-02T14:42:08;0.80;;;0.57;;
10450;SDS011;5273;51.290;6.918;2024-03-02T14:44:35;0.70;;;0.70;;
10450;SDS011;5273;51.290;6.918;2024-03-02T14:47:04;0.63;;;0.63;;
10450;SDS011;5273;51.290;6.918;2024-03-02T14:49:32;0.82;;;0.60;;
10450;SDS011;5273;51.290;6.918;2024-03-02T14:52:01;2.63;;;1.02;;
10450;SDS011;5273;51.290;6.918;2024-03-02T14:54:29;0.63;;;0.63;;
10450;SDS011;5273;51.290;6.918;2024-03-02T14:56:56;0.70;;;0.65;;
10450;SDS011;5273;51.290;6.918;2024-03-02T14:59:23;1.20;;;0.80;;
10450;SDS011;5273;51.290;6.918;2024-03-02T15:01:50;0.80;;;0.80;;
10450;SDS011;5273;51.290;6.918;2024-03-02T15:04:18;0.60;;;0.60;;
10450;SDS011;5273;51.290;6.918;2024-03-02T15:06:45;0.75;;;0.75;;
10450;SDS011;5273;51.290;6.918;2024-03-02T15:09:12;0.75;;;0.70;;
10450;SDS011;5273;51.290;6.918;2024-03-02T15:11:43;0.50;;;0.50;;
10450;SDS011;5273;51.290;6.918;2024-03-02T15:14:10;0.60;;;0.60;;